Time;durP1;ratioP1;P1;durP2;ratioP2;P2;SDS_P1;SDS_P2;PMS_P1;PMS_P2;Temp;Humidity;BMP_temperature;BMP_pressure;BME280_temperature;BME280_humidity;BME280_pressure;Samples;Min_cycle;Max_cycle;Signal;HPM_P1;HPM_P2
2023/01/18 00:01:35;;;;;;;19.40;9.50;;;;;;;-2.54;100.00;99035.03;5030866;28;20129;-63
2023/01/18 00:04:01;;;;;;;20.13;10.15;;;;;;;-2.51;100.00;99048.59;5030599;28;20087;-63
2023/01/18 00:06:26;;;;;;;15.13;8.50;;;;;;;-2.55;100.00;99038.63;5030637;28;20124;-63
2023/01/18 00:08:53;;;;;;;19.48;8.95;;;;;;;-2.50;100.00;99049.41;5030720;28;20068;-63
2023/01/18 00:11:18;;;;;;;18.25;9.60;;;;;;;-2.51;100.00;99048.59;5030689;28;20052;-63
2023/01/18 00:13:44;;;;;;;23.52;9.40;;;;;;;-2.51;100.00;99050.41;5030574;28;20029;-63
2023/01/18 00:16:15;;;;;;;22.52;9.80;;;;;;;-2.51;100.00;99053.00;5030502;28;20029;-63
2023/01/18 00:18:41;;;;;;;18.88;8.65;;;;;;;-2.55;100.00;99044.66;5030396;28;20053;-63
2023/01/18 00:21:09;;;;;;;21.25;10.63;;;;;;;-2.57;100.00;99054.44;5030368;28;20088;-64
2023/01/18 00:23:35;;;;;;;23.33;9.40;;;;;;;-2.59;100.00;99048.56;5030564;28;20041;-63
2023/01/18 00:26:02;;;;;;;21.05;9.43;;;;;;;-2.60;100.00;99046.09;5030852;28;20049;-63
2023/01/18 00:28:28;;;;;;;18.23;9.32;;;;;;;-2.61;100.00;99060.16;5030408;28;20120;-64
2023/01/18 00:30:53;;;;;;;25.98;10.80;;;;;;;-2.65;100.00;99050.03;5030631;28;20488;-63
2023/01/18 00:33:19;;;;;;;17.92;10.30;;;;;;;-2.66;100.00;99056.19;5030580;28;20021;-63
2023/01/18 00:35:56;;;;;;;17.92;9.70;;;;;;;-2.67;100.00;99057.19;5030684;28;20033;-64
2023/01/18 00:38:21;;;;;;;16.88;8.38;;;;;;;-2.69;100.00;99066.94;5030578;28;20026;-63
2023/01/18 00:40:47;;;;;;;20.98;10.25;;;;;;;-2.77;100.00;99050.44;5030523;28;20025;-63
2023/01/18 00:45:56;;;;;;;21.35;10.30;;;;;;;-2.71;100.00;99055.03;5030813;28;20048;-64
2023/01/18 00:48:21;;;;;;;20.98;9.10;;;;;;;-2.70;100.00;99059.25;5030277;28;20368;-63
2023/01/18 00:50:46;;;;;;;20.40;9.32;;;;;;;-2.71;100.00;99055.84;5030474;28;20420;-63
2023/01/18 00:53:12;;;;;;;18.25;8.68;;;;;;;-2.71;100.00;99062.84;5030286;28;20389;-64
2023/01/18 00:55:37;;;;;;;17.80;9.27;;;;;;;-2.70;100.00;99065.31;5029694;28;20207;-63
2023/01/18 00:58:02;;;;;;;25.65;9.48;;;;;;;-2.70;100.00;99067.94;5029818;28;20195;-63
2023/01/18 01:00:28;;;;;;;20.38;9.40;;;;;;;-2.69;100.00;99071.34;5029688;28;20044;-63
2023/01/18 01:02:53;;;;;;;18.55;9.00;;;;;;;-2.71;100.00;99070.69;5029617;28;20033;-63
2023/01/18 01:08:06;;;;;;;18.73;8.27;;;;;;;-2.75;100.00;99072.81;5029774;28;20048;-63
2023/01/18 01:10:33;;;;;;;20.70;9.88;;;;;;;-2.80;100.00;99067.22;5029589;28;20037;-63
2023/01/18 01:26:39;;;;;;;23.20;10.73;;;;;;;-2.82;100.00;99068.34;5029831;28;20060;-63
2023/01/18 01:29:04;;;;;;;18.00;9.88;;;;;;;-2.84;100.00;99068.50;5029797;28;20025;-63
2023/01/18 01:31:30;;;;;;;22.58;11.65;;;;;;;-2.87;100.00;99082.66;5029299;28;20091;-63
2023/01/18 01:33:55;;;;;;;19.08;8.73;;;;;;;-2.89;100.00;99082.00;5029788;28;20026;-63
2023/01/18 01:36:27;;;;;;;16.73;8.55;;;;;;;-2.92;100.00;99079.69;5029557;28;20473;-63
2023/01/18 01:38:53;;;;;;;18.70;9.77;;;;;;;-2.90;100.00;99092.59;5029900;28;20176;-63
2023/01/18 01:41:31;;;;;;;18.27;10.40;;;;;;;-2.90;100.00;99087.38;5029567;28;20655;-63
2023/01/18 01:43:58;;;;;;;32.70;10.07;;;;;;;-2.89;100.00;99095.03;5029615;28;20034;-70
2023/01/18 01:46:26;;;;;;;21.20;10.25;;;;;;;-2.90;100.00;99096.00;5029594;28;20047;-70
2023/01/18 01:49:01;;;;;;;18.30;9.30;;;;;;;-2.92;100.00;99094.53;5029474;28;20031;-70
2023/01/18 01:51:27;;;;;;;17.98;9.50;;;;;;;-2.88;100.00;99107.13;5029280;28;20041;-70
2023/01/18 01:53:52;;;;;;;23.40;10.45;;;;;;;-2.89;100.00;99108.06;5029424;28;20104;-70
2023/01/18 01:56:19;;;;;;;18.45;10.18;;;;;;;-2.90;100.00;99100.41;5029121;28;20481;-70
2023/01/18 01:58:50;;;;;;;21.20;10.27;;;;;;;-2.88;100.00;99106.31;5028817;28;20036;-70
2023/01/18 02:01:15;;;;;;;22.55;10.05;;;;;;;-2.88;100.00;99106.31;5028867;28;20025;-70
2023/01/18 02:03:41;;;;;;;18.20;9.02;;;;;;;-2.87;100.00;99098.31;5028872;28;20029;-70
2023/01/18 02:06:31;;;;;;;20.05;9.25;;;;;;;-2.88;100.00;99101.91;5028898;28;20056;-70
2023/01/18 02:08:59;;;;;;;26.15;10.40;;;;;;;-2.89;100.00;99102.84;5028872;28;20029;-70
2023/01/18 02:11:25;;;;;;;20.02;8.75;;;;;;;-2.96;100.00;99088.81;5028793;28;20041;-70
2023/01/18 02:13:50;;;;;;;15.52;8.77;;;;;;;-2.89;100.00;99099.44;5028927;28;20388;-70
2023/01/18 02:16:15;;;;;;;17.88;9.70;;;;;;;-2.88;100.00;99093.28;5029376;28;20022;-70
2023/01/18 02:18:47;;;;;;;22.52;9.95;;;;;;;-2.90;100.00;99093.41;5029286;28;20029;-70
2023/01/18 02:21:17;;;;;;;;;;;;;;;-2.89;100.00;99104.66;5029713;28;20071;-70
2023/01/18 02:24:13;;;;;;;17.52;9.60;;;;;;;-2.90;100.00;99097.81;5029133;28;19967;-70
2023/01/18 02:27:01;;;;;;;18.23;9.20;;;;;;;-2.94;100.00;99094.69;5029545;28;20033;-70
2023/01/18 02:29:39;;;;;;;19.42;9.57;;;;;;;-2.92;100.00;99116.22;5033151;28;20389;-70
2023/01/18 02:32:38;;;;;;;19.98;9.35;;;;;;;-2.93;100.00;99108.56;5033048;28;20025;-70
2023/01/18 02:35:11;;;;;;;16.25;8.75;;;;;;;-2.95;100.00;99110.50;5033060;28;20040;-70
2023/01/18 02:38:01;;;;;;;22.17;10.77;;;;;;;-2.96;100.00;99112.28;5032814;28;20465;-70
2023/01/18 02:40:29;;;;;;;19.65;10.02;;;;;;;-2.98;100.00;99116.03;5032925;28;20037;-70
2023/01/18 02:48:36;;;;;;;20.35;9.57;;;;;;;-3.02;100.00;99123.31;5032855;28;20036;-70
2023/01/18 02:51:02;;;;;;;20.30;9.70;;;;;;;-3.03;100.00;99120.88;5032385;28;20017;-70
2023/01/18 02:53:29;;;;;;;20.50;9.75;;;;;;;-3.04;100.00;99120.03;5032637;28;20037;-70
2023/01/18 02:56:02;;;;;;;34.63;9.55;;;;;;;-3.05;100.00;99122.81;5032343;28;20029;-70
2023/01/18 02:58:37;;;;;;;22.48;10.93;;;;;;;-3.06;100.00;99121.19;5031697;28;20116;-70
2023/01/18 03:01:12;;;;;;;16.95;8.50;;;;;;;-3.06;100.00;99119.38;5031746;28;20029;-70
2023/01/18 03:03:42;;;;;;;20.83;8.68;;;;;;;-3.10;100.00;99118.84;5031800;28;20637;-70
2023/01/18 03:06:08;;;;;;;20.02;10.93;;;;;;;-3.11;100.00;99127.66;5031817;28;20021;-70
2023/01/18 03:08:45;;;;;;;18.08;9.80;;;;;;;-3.13;100.00;99121.78;5031771;28;20044;-70
2023/01/18 03:11:25;;;;;;;17.90;9.10;;;;;;;-3.17;100.00;99123.06;5031776;28;20034;-70
2023/01/18 03:13:57;;;;;;;23.87;10.47;;;;;;;-3.20;100.00;99125.94;5014061;28;20527;-70
2023/01/18 03:16:30;;;;;;;;;;;;;;;-3.20;100.00;99130.34;5032196;28;21036;-72
2023/01/18 03:19:04;;;;;;;18.83;9.82;;;;;;;-3.25;100.00;99128.19;5031990;28;19909;-70
2023/01/18 03:21:45;;;;;;;17.55;8.88;;;;;;;-3.28;100.00;99125.06;5031516;28;20132;-70
2023/01/18 03:24:13;;;;;;;19.67;9.75;;;;;;;-3.30;100.00;99130.44;5031453;28;20041;-70
2023/01/18 03:26:43;;;;;;;18.45;8.32;;;;;;;-3.32;100.00;99129.78;5031711;28;20025;-70
2023/01/18 03:34:55;;;;;;;18.65;10.00;;;;;;;-3.34;100.00;99139.53;5032134;28;20036;-70
2023/01/18 03:37:27;;;;;;;21.25;9.25;;;;;;;-3.34;100.00;99137.72;5031822;28;20400;-63
2023/01/18 03:39:59;;;;;;;21.52;10.75;;;;;;;-3.35;100.00;99137.91;5031693;28;20027;-63
2023/01/18 03:42:32;;;;;;;14.85;8.43;;;;;;;-3.34;100.00;99142.13;5032024;28;20033;-64
2023/01/18 03:45:23;;;;;;;16.95;8.70;;;;;;;-3.35;100.00;99143.94;5031554;28;20030;-64
2023/01/18 03:47:49;;;;;;;19.65;9.65;;;;;;;-3.38;100.00;99154.66;5031910;28;20026;-63
2023/01/18 03:50:22;;;;;;;21.25;9.43;;;;;;;-3.39;100.00;99152.19;5031699;28;20056;-63
2023/01/18 03:52:54;;;;;;;18.05;9.55;;;;;;;-3.43;100.00;99150.81;5031552;28;20087;-63
2023/01/18 03:55:26;;;;;;;23.17;10.90;;;;;;;-3.37;100.00;99165.88;5031500;28;20025;-64
2023/01/18 03:58:01;;;;;;;17.15;8.07;;;;;;;-3.39;100.00;99158.22;5030965;28;20056;-63
2023/01/18 04:00:30;;;;;;;14.68;7.57;;;;;;;-3.41;100.00;99164.53;5030731;28;20029;-63
2023/01/18 04:02:56;;;;;;;15.57;8.35;;;;;;;-3.41;100.00;99167.97;5030846;28;20029;-63
2023/01/18 04:05:22;;;;;;;19.67;10.55;;;;;;;-3.42;100.00;99175.94;5030872;28;20445;-64
2023/01/18 04:07:48;;;;;;;18.48;8.30;;;;;;;-3.45;100.00;99176.25;5030730;28;20128;-63
2023/01/18 04:10:14;;;;;;;20.98;8.73;;;;;;;-3.46;100.00;99177.19;5030725;28;20045;-63
2023/01/18 04:12:39;;;;;;;17.65;8.38;;;;;;;-3.47;100.00;99188.59;5030814;28;20033;-63
2023/01/18 04:15:05;;;;;;;19.38;9.93;;;;;;;-3.49;100.00;99186.13;5030684;28;20029;-63
2023/01/18 04:17:30;;;;;;;17.77;8.35;;;;;;;-3.47;100.00;99188.59;5030585;28;20041;-63
2023/01/18 04:19:56;;;;;;;17.83;8.90;;;;;;;-3.48;100.00;99187.78;5030669;28;20030;-63
2023/01/18 04:22:21;;;;;;;18.83;9.00;;;;;;;-3.48;100.00;99192.16;5030239;28;20074;-63
2023/01/18 04:24:46;;;;;;;15.80;8.75;;;;;;;-3.47;100.00;99188.59;5030227;28;20120;-63
2023/01/18 04:27:12;;;;;;;18.67;8.93;;;;;;;-3.47;100.00;99193.81;5030427;28;20116;-64
2023/01/18 04:29:37;;;;;;;16.60;9.35;;;;;;;-3.47;100.00;99180.78;5030785;28;20068;-64
2023/01/18 04:32:04;;;;;;;16.45;8.07;;;;;;;-3.48;100.00;99185.19;5030746;28;20112;-64
2023/01/18 04:34:30;;;;;;;17.38;8.63;;;;;;;-3.48;100.00;99193.00;5030528;28;20017;-63
2023/01/18 04:36:55;;;;;;;17.52;8.85;;;;;;;-3.48;100.00;99193.00;5030736;28;20037;-63
2023/01/18 04:39:21;;;;;;;20.67;9.68;;;;;;;-3.47;100.00;99194.63;5030685;28;20075;-64
2023/01/18 04:41:46;;;;;;;19.08;9.43;;;;;;;-3.47;100.00;99194.63;5030419;28;20041;-63
2023/01/18 04:44:12;;;;;;;22.27;9.43;;;;;;;-3.47;100.00;99196.41;5030537;28;20105;-63
2023/01/18 04:46:37;;;;;;;17.27;8.98;;;;;;;-3.49;100.00;99193.13;5030543;28;20069;-64
2023/01/18 04:49:10;;;;;;;17.95;10.55;;;;;;;-3.48;100.00;99194.75;5030258;28;20029;-63
2023/01/18 04:51:37;;;;;;;20.35;10.85;;;;;;;-3.51;100.00;99201.09;5030027;28;20037;-63
2023/01/18 04:54:02;;;;;;;17.83;10.20;;;;;;;-3.49;100.00;99209.56;5030330;28;20018;-63
2023/01/18 04:56:28;;;;;;;22.90;10.00;;;;;;;-3.50;100.00;99205.34;5030361;28;20112;-63
2023/01/18 04:58:53;;;;;;;20.55;10.73;;;;;;;-3.53;100.00;99206.44;5029964;28;20071;-64
2023/01/18 05:01:19;;;;;;;21.42;10.88;;;;;;;-3.54;100.00;99204.81;5029754;28;20039;-64
2023/01/18 05:03:44;;;;;;;20.13;10.85;;;;;;;-3.54;100.00;99210.03;5029360;28;20095;-64
2023/01/18 05:06:12;;;;;;;18.10;9.70;;;;;;;-3.54;100.00;99212.66;5029650;28;20586;-63
2023/01/18 05:08:40;;;;;;;21.00;9.55;;;;;;;-3.54;100.00;99219.63;5029743;28;20044;-63
2023/01/18 05:11:09;;;;;;;21.70;11.60;;;;;;;-3.56;100.00;99217.19;5029495;28;20048;-63
2023/01/18 05:13:34;;;;;;;20.67;10.02;;;;;;;-3.60;100.00;99215.81;5029560;28;20420;-63
2023/01/18 05:16:00;;;;;;;19.85;9.32;;;;;;;-3.56;100.00;99227.59;5029460;28;20032;-64
2023/01/18 05:18:26;;;;;;;19.42;8.52;;;;;;;-3.56;100.00;99227.59;5029553;28;20033;-63
2023/01/18 05:20:52;;;;;;;22.08;10.02;;;;;;;-3.56;100.00;99221.56;5029675;28;20025;-64
2023/01/18 05:23:17;;;;;;;21.85;10.25;;;;;;;-3.56;100.00;99227.59;5029371;28;20054;-64
2023/01/18 05:25:43;;;;;;;21.73;10.75;;;;;;;-3.54;100.00;99235.25;5029314;28;20499;-63
2023/01/18 05:28:09;;;;;;;19.00;10.60;;;;;;;-3.55;100.00;99233.63;5029550;28;20047;-63
2023/01/18 05:30:40;;;;;;;20.67;9.02;;;;;;;-3.53;100.00;99235.13;5029786;28;20033;-63
2023/01/18 05:33:06;;;;;;;19.45;10.35;;;;;;;-3.50;100.00;99238.41;5029950;28;20033;-63
2023/01/18 05:35:31;;;;;;;19.77;10.50;;;;;;;-3.52;100.00;99239.34;5029437;28;20405;-64
2023/01/18 05:37:57;;;;;;;22.35;11.27;;;;;;;-3.50;100.00;99239.22;5029529;28;20048;-63
2023/01/18 05:40:22;;;;;;;17.80;9.88;;;;;;;-3.51;100.00;99237.59;5029627;28;20060;-63
2023/01/18 05:42:48;;;;;;;21.75;11.55;;;;;;;-3.52;100.00;99239.34;5029880;28;20041;-63
2023/01/18 05:45:13;;;;;;;20.77;9.65;;;;;;;-3.51;100.00;99245.41;5029680;28;20063;-63
2023/01/18 05:47:40;;;;;;;18.88;10.77;;;;;;;-3.50;100.00;99246.22;5029621;28;20036;-63
2023/01/18 05:50:06;;;;;;;23.80;11.02;;;;;;;-3.49;100.00;99245.25;5029537;28;20022;-63
2023/01/18 05:52:32;;;;;;;19.77;10.73;;;;;;;-3.52;100.00;99254.16;5029425;28;20041;-64
2023/01/18 05:54:57;;;;;;;17.48;9.90;;;;;;;-3.58;100.00;99255.56;5029547;28;20052;-63
2023/01/18 05:57:22;;;;;;;20.15;10.70;;;;;;;-3.55;100.00;99263.09;5029443;28;20029;-64
2023/01/18 05:59:48;;;;;;;20.15;10.57;;;;;;;-3.56;100.00;99263.25;5029186;28;20088;-63
2023/01/18 06:02:13;;;;;;;18.73;9.85;;;;;;;-3.56;100.00;99265.88;5031595;28;20033;-64
2023/01/18 06:04:38;;;;;;;20.50;9.43;;;;;;;-3.56;100.00;99265.88;5032884;28;20117;-63
2023/01/18 06:07:04;;;;;;;23.38;9.93;;;;;;;-3.57;100.00;99262.41;5032976;28;20482;-63
2023/01/18 06:09:29;;;;;;;19.70;9.95;;;;;;;-3.58;100.00;99268.59;5032876;28;20362;-63
2023/01/18 06:11:55;;;;;;;23.70;11.73;;;;;;;-3.59;100.00;99276.56;5032791;28;20038;-63
2023/01/18 06:14:21;;;;;;;22.73;13.15;;;;;;;-3.58;100.00;99286.03;5032852;28;20132;-63
2023/01/18 06:16:46;;;;;;;24.20;13.15;;;;;;;-3.61;100.00;99275.91;5032871;28;20120;-63
2023/01/18 06:19:12;;;;;;;19.35;11.48;;;;;;;-3.61;100.00;99284.53;5032860;28;20514;-63
2023/01/18 06:21:37;;;;;;;21.58;12.43;;;;;;;-3.61;100.00;99289.75;5032709;28;20065;-63
2023/01/18 06:24:02;;;;;;;19.20;10.38;;;;;;;-3.64;100.00;99291.78;5032515;28;20034;-63
2023/01/18 06:26:30;;;;;;;20.48;9.88;;;;;;;-3.61;100.00;99297.56;5032608;28;20026;-64
2023/01/18 06:28:56;;;;;;;18.60;11.82;;;;;;;-3.64;100.00;99308.28;5032800;28;20111;-63
2023/01/18 06:31:22;;;;;;;20.73;10.50;;;;;;;-3.67;100.00;99308.53;5033036;28;20084;-63
2023/01/18 06:33:47;;;;;;;17.60;10.10;;;;;;;-3.66;100.00;99307.59;5032934;28;20022;-63
2023/01/18 06:36:13;;;;;;;21.88;10.77;;;;;;;-3.65;100.00;99324.84;5032967;28;20036;-63
2023/01/18 06:38:40;;;;;;;20.02;10.43;;;;;;;-3.66;100.00;99312.81;5032668;28;20030;-64
2023/01/18 06:41:05;;;;;;;34.33;13.60;;;;;;;-3.68;100.00;99309.50;5015156;28;20033;-63
2023/01/18 06:43:30;;;;;;;18.20;9.98;;;;;;;-3.67;100.00;99318.97;5032638;28;20036;-64
2023/01/18 06:45:56;;;;;;;22.42;12.40;;;;;;;-3.68;100.00;99313.91;5032853;28;20116;-63
2023/01/18 06:48:22;;;;;;;19.33;11.50;;;;;;;-3.70;100.00;99324.44;5032684;28;20068;-63
2023/01/18 06:50:49;;;;;;;21.50;11.10;;;;;;;-3.73;100.00;99324.75;5032667;28;20048;-63
2023/01/18 06:53:14;;;;;;;23.95;12.85;;;;;;;-3.74;100.00;99325.72;5032660;28;20033;-63
2023/01/18 06:55:40;;;;;;;23.23;11.32;;;;;;;-3.74;100.00;99330.94;5032493;28;20038;-63
2023/01/18 06:58:05;;;;;;;21.77;12.05;;;;;;;-3.75;100.00;99337.94;5032508;28;20021;-63
2023/01/18 07:00:30;;;;;;;23.05;12.25;;;;;;;-3.73;100.00;99342.97;5032195;28;20041;-64
2023/01/18 07:02:57;;;;;;;18.48;10.98;;;;;;;-3.73;100.00;99344.78;5031726;28;20037;-64
2023/01/18 07:05:22;;;;;;;21.20;11.82;;;;;;;-3.75;100.00;99335.31;5031730;28;20025;-63
2023/01/18 07:07:47;;;;;;;23.20;11.65;;;;;;;-3.73;100.00;99350.78;5031585;28;20033;-63
2023/01/18 07:10:13;;;;;;;23.20;12.50;;;;;;;-3.73;100.00;99353.41;5031772;28;20025;-63
2023/01/18 07:12:38;;;;;;;19.98;12.23;;;;;;;-3.70;100.00;99360.09;5013137;28;20120;-63
2023/01/18 07:15:06;;;;;;;22.27;12.50;;;;;;;-3.69;100.00;99362.59;5013647;28;20132;-63
2023/01/18 07:17:31;;;;;;;26.70;13.45;;;;;;;-3.68;100.00;99360.78;5031599;28;20452;-63
2023/01/18 07:19:56;;;;;;;27.67;14.10;;;;;;;-3.65;100.00;99363.13;5031530;28;20100;-63
2023/01/18 07:22:22;;;;;;;26.00;14.85;;;;;;;-3.69;100.00;99354.78;5031320;28;20173;-64
2023/01/18 07:24:47;;;;;;;29.80;13.25;;;;;;;-3.67;100.00;99363.25;5031272;28;20433;-63
2023/01/18 07:27:13;;;;;;;20.40;12.38;;;;;;;-3.66;100.00;99375.31;5031406;28;20037;-63
2023/01/18 07:29:38;;;;;;;22.40;12.20;;;;;;;-3.68;100.00;99377.25;5031317;28;20499;-63
2023/01/18 07:32:04;;;;;;;24.17;14.10;;;;;;;-3.66;100.00;99385.75;5031378;28;20485;-64
2023/01/18 07:34:29;;;;;;;24.90;13.63;;;;;;;-3.67;100.00;99378.88;5031774;28;20031;-63
2023/01/18 07:36:55;;;;;;;24.40;13.43;;;;;;;-3.68;100.00;99374.63;5031574;28;20036;-65
2023/01/18 07:39:20;;;;;;;26.92;14.40;;;;;;;-3.67;100.00;99372.84;5031136;28;20583;-64
2023/01/18 07:41:45;;;;;;;21.45;12.63;;;;;;;-3.64;100.00;99380.38;5031389;28;20075;-63
2023/01/18 07:44:11;;;;;;;21.73;12.95;;;;;;;-3.63;100.00;99385.47;5031206;28;20116;-63
2023/01/18 07:46:37;;;;;;;22.77;12.18;;;;;;;-3.60;100.00;99389.56;5030491;28;20033;-63
2023/01/18 07:49:04;;;;;;;24.45;12.82;;;;;;;-3.60;100.00;99394.78;5031344;28;20037;-63
2023/01/18 07:51:30;;;;;;;22.60;12.77;;;;;;;-3.58;100.00;99391.06;5031470;28;20076;-63
2023/01/18 07:53:56;;;;;;;26.40;13.00;;;;;;;-3.60;100.00;99384.34;5031341;28;20029;-63
2023/01/18 07:56:24;;;;;;;24.33;13.75;;;;;;;-3.54;100.00;99396.81;5031589;28;20444;-63
2023/01/18 07:58:51;;;;;;;26.45;13.77;;;;;;;-3.53;100.00;99398.47;5031331;28;20028;-63
2023/01/18 08:01:18;;;;;;;26.08;12.93;;;;;;;-3.50;100.00;99399.97;5030596;28;20029;-65
2023/01/18 08:03:46;;;;;;;29.88;13.57;;;;;;;-3.49;100.00;99396.38;5030078;28;20120;-64
2023/01/18 08:06:15;;;;;;;24.25;14.00;;;;;;;-3.56;100.00;99388.34;5030429;28;20392;-64
2023/01/18 08:08:41;;;;;;;29.52;16.38;;;;;;;-3.47;100.00;99416.13;5030347;28;20033;-64
2023/01/18 08:11:08;;;;;;;23.77;16.00;;;;;;;-3.46;100.00;99412.53;5030198;28;20033;-64
2023/01/18 08:13:33;;;;;;;26.23;12.75;;;;;;;-3.44;100.00;99413.22;5030154;28;20433;-64
2023/01/18 08:16:00;;;;;;;21.40;12.68;;;;;;;-3.41;100.00;99417.34;5030284;28;20136;-65
2023/01/18 08:18:26;;;;;;;28.67;14.18;;;;;;;-3.39;100.00;99420.63;5030123;28;20053;-65
2023/01/18 08:20:52;;;;;;;26.10;14.18;;;;;;;-3.38;100.00;99417.91;5030091;28;20068;-65
2023/01/18 08:23:17;;;;;;;28.63;13.30;;;;;;;-3.33;100.00;99418.28;5029554;28;20057;-65
2023/01/18 08:25:43;;;;;;;27.67;14.55;;;;;;;-3.31;100.00;99423.34;5028737;28;20079;-65
2023/01/18 08:28:10;;;;;;;25.02;11.85;;;;;;;-3.24;100.00;99427.03;5029908;28;20108;-64
2023/01/18 08:30:42;;;;;;;23.77;12.43;;;;;;;-3.18;100.00;99434.25;5030119;28;20033;-65
2023/01/18 08:33:08;;;;;;;26.42;13.98;;;;;;;-3.14;100.00;99435.63;5030693;28;20925;-65
2023/01/18 08:35:45;;;;;;;21.88;12.57;;;;;;;-3.11;100.00;99439.75;5030612;28;20029;-65
2023/01/18 08:38:12;;;;;;;21.00;12.60;;;;;;;-3.07;100.00;99435.88;5030755;28;20060;-65
2023/01/18 08:40:38;;;;;;;22.90;13.60;;;;;;;-2.99;100.00;99442.97;5030235;28;20025;-64
2023/01/18 08:43:04;;;;;;;21.77;12.45;;;;;;;-2.95;100.00;99439.94;5029996;28;20033;-64
2023/01/18 08:45:29;;;;;;;21.75;13.57;;;;;;;-2.89;100.00;99444.56;5030565;28;20967;-64
2023/01/18 08:48:04;;;;;;;20.83;11.77;;;;;;;-2.82;100.00;99450.03;5030512;28;20037;-64
2023/01/18 08:50:30;;;;;;;26.08;13.15;;;;;;;-2.78;100.00;99451.38;5030642;28;20461;-65
2023/01/18 08:52:58;;;;;;;27.88;14.13;;;;;;;-2.75;100.00;99451.09;5030387;28;20037;-65
2023/01/18 08:55:24;;;;;;;23.60;13.40;;;;;;;-2.69;100.00;99460.94;5029925;28;20033;-65
2023/01/18 08:57:53;;;;;;;24.17;12.77;;;;;;;-2.63;100.00;99466.56;5030161;28;20056;-65
2023/01/18 09:00:18;;;;;;;22.98;12.43;;;;;;;-2.57;100.00;99464.16;5030311;28;20041;-65
2023/01/18 09:02:44;;;;;;;26.15;14.10;;;;;;;-2.51;100.00;99462.78;5029042;28;20080;-65
2023/01/18 09:05:09;;;;;;;24.23;13.23;;;;;;;-2.45;100.00;99459.56;5029268;28;20105;-65
2023/01/18 09:07:35;;;;;;;20.48;12.27;;;;;;;-2.34;100.00;99468.97;5029414;28;20026;-65
2023/01/18 09:10:00;;;;;;;24.92;13.60;;;;;;;-2.22;100.00;99476.47;5029546;28;20485;-65
2023/01/18 09:12:25;;;;;;;21.60;13.25;;;;;;;-2.14;100.00;99469.69;5029442;28;20120;-65
2023/01/18 09:14:51;;;;;;;20.73;13.07;;;;;;;-2.07;100.00;99468.94;5029322;28;20104;-65
2023/01/18 09:17:20;;;;;;;27.05;12.45;;;;;;;-2.01;100.00;99491.03;5029375;28;20040;-65
2023/01/18 09:19:45;;;;;;;20.90;12.85;;;;;;;-1.97;100.00;99484.50;5029419;28;20607;-64
2023/01/18 09:22:11;;;;;;;21.17;12.80;;;;;;;-1.89;100.00;99489.81;5028963;28;20057;-64
2023/01/18 09:24:36;;;;;;;22.05;12.65;;;;;;;-1.81;100.00;99492.50;5028963;28;20041;-65
2023/01/18 09:27:03;;;;;;;22.27;13.40;;;;;;;-1.74;100.00;99497.94;5029080;28;20021;-71
2023/01/18 09:29:29;;;;;;;24.25;13.60;;;;;;;-1.70;100.00;99501.06;5029612;28;20025;-69
2023/01/18 09:31:55;;;;;;;19.20;11.82;;;;;;;-1.68;100.00;99502.56;5029848;28;20132;-69
2023/01/18 09:34:20;;;;;;;19.67;11.88;;;;;;;-1.64;100.00;99509.13;5029816;28;20439;-70
2023/01/18 09:36:50;;;;;;;23.25;12.15;;;;;;;-1.60;100.00;99509.63;5029370;28;20450;-70
2023/01/18 09:39:15;;;;;;;22.55;12.27;;;;;;;-1.56;100.00;99508.38;5029621;28;20422;-71
2023/01/18 09:41:46;;;;;;;22.05;12.27;;;;;;;-1.47;100.00;99522.31;5029513;28;20136;-70
2023/01/18 09:44:23;;;;;;;23.33;11.95;;;;;;;-1.41;100.00;99525.16;5029591;28;20040;-69
2023/01/18 09:46:54;;;;;;;24.48;11.95;;;;;;;-1.33;100.00;99513.94;5029703;28;20029;-68
2023/01/18 09:49:28;;;;;;;23.83;12.60;;;;;;;-1.22;100.00;99515.50;5029643;28;20040;-68
2023/01/18 09:52:19;;;;;;;23.40;12.65;;;;;;;-1.18;100.00;99515.03;5029460;28;20384;-69
2023/01/18 09:54:50;;;;;;;25.15;12.80;;;;;;;-1.03;100.00;99523.13;5029464;28;20021;-69
2023/01/18 09:57:30;;;;;;;22.73;13.00;;;;;;;-0.95;100.00;99528.38;5029403;28;20041;-69
2023/01/18 10:00:03;;;;;;;21.30;13.00;;;;;;;-0.85;100.00;99537.94;5029502;28;20029;-69
2023/01/18 10:02:39;;;;;;;21.33;12.25;;;;;;;-0.78;100.00;99537.16;5028968;28;20504;-73
2023/01/18 10:05:10;;;;;;;21.25;12.95;;;;;;;-0.72;100.00;99531.28;5023228;28;20720;-71
2023/01/18 10:07:46;;;;;;;17.88;10.32;;;;;;;-0.63;100.00;99524.28;5023001;28;20029;-70
2023/01/18 10:10:17;;;;;;;22.40;11.45;;;;;;;-0.52;100.00;99531.06;5005721;28;20408;-70
2023/01/18 10:12:47;;;;;;;19.33;12.05;;;;;;;-0.44;100.00;99533.72;5023401;28;20029;-69
2023/01/18 10:15:25;;;;;;;20.92;11.77;;;;;;;-0.38;100.00;99538.31;5022883;28;20469;-70
2023/01/18 10:17:55;;;;;;;20.55;10.32;;;;;;;-0.30;100.00;99537.53;5022940;28;20036;-71
2023/01/18 10:20:46;;;;;;;20.95;11.68;;;;;;;-0.23;100.00;99541.16;5005237;28;20037;-70
2023/01/18 10:23:21;;;;;;;20.83;10.65;;;;;;;-0.19;100.00;99537.22;5023726;28;20610;-72
2023/01/18 10:25:54;;;;;;;20.70;11.00;;;;;;;-0.09;100.00;99547.56;5023506;28;20075;-72
2023/01/18 10:28:38;;;;;;;20.70;10.52;;;;;;;-0.03;100.00;99547.75;5024546;28;20029;-70
2023/01/18 10:31:23;;;;;;;20.58;10.40;;;;;;;0.07;100.00;99546.78;5023049;28;20025;-73
2023/01/18 10:33:54;;;;;;;17.80;9.07;;;;;;;0.15;100.00;99546.78;5023465;28;20112;-71
2023/01/18 10:36:25;;;;;;;19.60;11.40;;;;;;;0.24;100.00;99547.63;5024003;28;20025;-73
2023/01/18 10:38:53;;;;;;;17.88;10.90;;;;;;;0.29;100.00;99540.94;5023227;28;20029;-70
2023/01/18 10:41:26;;;;;;;27.23;11.38;;;;;;;0.35;100.00;99542.88;5022848;28;20483;-72
2023/01/18 10:43:52;;;;;;;18.15;10.90;;;;;;;0.44;100.00;99552.38;5028362;28;20025;-70
2023/01/18 10:46:18;;;;;;;18.30;9.75;;;;;;;0.51;100.00;99546.50;5029049;28;20495;-70
2023/01/18 10:48:49;;;;;;;19.00;9.82;;;;;;;0.57;100.00;99544.03;5030863;28;20469;-70
2023/01/18 10:51:31;;;;;;;15.00;9.87;;;;;;;0.67;100.00;99557.00;5032785;28;20021;-70
2023/01/18 10:53:57;;;;;;;17.08;9.35;;;;;;;0.72;100.00;99562.56;5032712;28;20636;-70
2023/01/18 10:56:25;;;;;;;19.25;10.32;;;;;;;0.78;100.00;99555.84;5032693;28;20025;-71
2023/01/18 10:58:50;;;;;;;17.55;9.70;;;;;;;0.84;100.00;99553.38;5032636;28;20033;-71
2023/01/18 11:01:22;;;;;;;18.67;11.20;;;;;;;0.88;100.00;99551.22;5032521;28;20491;-70
2023/01/18 11:03:52;;;;;;;;;;;;;;;0.99;100.00;99555.31;5032469;28;20029;-70
2023/01/18 11:06:19;;;;;;;18.55;10.07;;;;;;;1.03;100.00;99551.38;5031622;28;20380;-71
2023/01/18 11:08:46;;;;;;;16.02;8.93;;;;;;;1.10;100.00;99557.59;5031571;28;20453;-71
2023/01/18 11:11:16;;;;;;;13.85;8.50;;;;;;;1.16;100.00;99559.56;5031322;28;20036;-71
2023/01/18 11:13:45;;;;;;;19.25;9.70;;;;;;;1.20;100.00;99555.59;5031332;28;20041;-71
2023/01/18 11:16:16;;;;;;;20.30;11.23;;;;;;;1.26;100.00;99567.25;5031783;28;20029;-70
2023/01/18 11:18:58;;;;;;;17.40;9.43;;;;;;;1.28;100.00;99571.34;5031661;28;20055;-70
2023/01/18 11:21:25;;;;;;;21.55;10.00;;;;;;;1.37;100.00;99566.91;5031338;28;20473;-70
2023/01/18 11:23:52;;;;;;;21.27;10.23;;;;;;;1.44;100.00;99575.75;5031444;28;20463;-71
2023/01/18 11:26:20;;;;;;;20.83;9.63;;;;;;;1.50;100.00;99571.63;5031790;28;20037;-70
2023/01/18 11:29:00;;;;;;;18.88;10.10;;;;;;;1.56;100.00;99565.66;5031721;28;20084;-70
2023/01/18 11:31:29;;;;;;;18.35;10.18;;;;;;;1.60;100.00;99558.25;5031464;28;20025;-70
2023/01/18 11:34:05;;;;;;;18.38;9.20;;;;;;;1.63;100.00;99550.88;5031648;28;20025;-70
2023/01/18 11:36:43;;;;;;;19.55;9.77;;;;;;;1.67;100.00;99552.16;5031893;28;20025;-70
2023/01/18 11:39:29;;;;;;;19.80;10.35;;;;;;;1.75;100.00;99556.56;5031856;28;20068;-70
2023/01/18 11:42:10;;;;;;;15.98;9.20;;;;;;;1.82;100.00;99551.44;5031740;28;20045;-70
2023/01/18 11:44:38;;;;;;;17.67;9.70;;;;;;;1.84;100.00;99552.91;5031352;28;20029;-70
2023/01/18 11:47:09;;;;;;;20.45;9.82;;;;;;;1.93;100.00;99554.50;5031405;28;20083;-71
2023/01/18 11:49:35;;;;;;;15.38;9.10;;;;;;;1.97;100.00;99557.63;5031520;28;20087;-71
2023/01/18 11:52:09;;;;;;;18.48;9.40;;;;;;;2.00;100.00;99556.44;5031596;28;20139;-71